Terminal Aerodrome Forecast
Issued by NWS

Home | Current Version | Previous Version | Text Only | Print | Product List | Glossary On
Versions: 1 2 3 4 5 6 7 8 9 10 11 12
000
FTUS43 KDVN 051724
TAFCID
TAF
KCID 051724Z 0518/0618 18011KT P6SM SCT035
     FM060300 15007KT 4SM BR SCT150
     FM061500 18013KT 6SM HZ SCT040=

USA.gov is the U.S. government's official web portal to all federal, state and local government web resources and services.